createdAt,value
2018-11-11T00:01:16.527Z,10.80
2018-11-11T00:03:50.290Z,10.80
2018-11-11T00:06:24.158Z,10.80
2018-11-11T00:08:59.974Z,10.80
2018-11-11T00:11:33.769Z,10.80
2018-11-11T00:14:07.735Z,10.80
2018-11-11T00:16:41.505Z,10.90
2018-11-11T00:19:16.490Z,11.00
2018-11-11T00:21:50.331Z,10.90
2018-11-11T00:24:24.329Z,10.90
2018-11-11T00:26:58.170Z,10.90
2018-11-11T00:29:31.965Z,10.90
2018-11-11T00:32:05.894Z,10.90
2018-11-11T00:34:39.760Z,10.90
2018-11-11T00:37:13.538Z,10.90
2018-11-11T00:39:48.320Z,10.90
2018-11-11T00:42:22.135Z,10.90
2018-11-11T00:45:06.557Z,10.90
2018-11-11T00:47:40.350Z,10.80
2018-11-11T00:50:15.275Z,10.90
2018-11-11T00:52:49.042Z,10.80
2018-11-11T00:55:23.902Z,10.80
2018-11-11T00:57:57.664Z,10.80
2018-11-11T01:00:33.441Z,10.80
2018-11-11T01:03:07.201Z,10.80
2018-11-11T01:05:42.040Z,10.80
2018-11-11T01:08:15.863Z,10.90
2018-11-11T01:10:50.701Z,10.90
2018-11-11T01:13:24.484Z,10.90
2018-11-11T01:15:59.332Z,10.90
2018-11-11T01:18:33.105Z,11.00
2018-11-11T01:21:06.938Z,11.00
2018-11-11T01:23:40.745Z,11.00
2018-11-11T01:26:15.620Z,11.00
2018-11-11T01:28:49.424Z,11.00
2018-11-11T01:31:23.273Z,11.00
2018-11-11T01:33:57.037Z,10.90
2018-11-11T01:36:30.884Z,10.90
2018-11-11T01:39:05.759Z,10.90
2018-11-11T01:41:40.557Z,10.90
2018-11-11T01:44:14.314Z,10.90
2018-11-11T01:46:49.168Z,10.80
2018-11-11T01:49:22.948Z,10.90
2018-11-11T01:51:56.681Z,10.80
2018-11-11T01:54:30.453Z,10.80
2018-11-11T01:57:05.645Z,10.80
2018-11-11T01:59:39.412Z,10.80
2018-11-11T02:02:14.173Z,10.80
2018-11-11T02:04:47.913Z,10.80
2018-11-11T02:07:21.699Z,10.80
2018-11-11T02:09:55.517Z,10.80
2018-11-11T02:12:30.451Z,10.80
2018-11-11T02:15:04.300Z,10.80
2018-11-11T02:17:39.079Z,10.80
2018-11-11T02:20:15.222Z,10.70
2018-11-11T02:22:51.673Z,10.70
2018-11-11T02:25:25.453Z,10.70
2018-11-11T02:28:00.253Z,10.70
2018-11-11T02:30:34.024Z,10.70
2018-11-11T02:33:09.904Z,10.70
2018-11-11T02:35:43.661Z,10.70
2018-11-11T02:38:17.501Z,10.70
2018-11-11T02:40:51.303Z,10.70
2018-11-11T02:43:27.071Z,10.80
2018-11-11T02:46:00.860Z,10.80
2018-11-11T02:48:35.699Z,10.80
2018-11-11T02:51:09.499Z,10.80
2018-11-11T02:53:44.383Z,10.80
2018-11-11T02:56:18.183Z,10.80
2018-11-11T02:58:54.026Z,10.80
2018-11-11T03:01:27.822Z,10.80
2018-11-11T03:04:05.883Z,10.80
2018-11-11T03:06:39.819Z,10.90
2018-11-11T03:09:14.077Z,10.90
2018-11-11T03:11:47.853Z,10.90
2018-11-11T03:14:22.715Z,10.80
2018-11-11T03:16:56.512Z,10.80
2018-11-11T03:19:30.303Z,10.80
2018-11-11T03:22:04.099Z,10.70
2018-11-11T03:24:38.981Z,10.70
2018-11-11T03:27:12.754Z,10.70
2018-11-11T03:29:47.539Z,10.70
2018-11-11T03:32:21.335Z,10.70
2018-11-11T03:34:55.254Z,10.70
2018-11-11T03:37:29.041Z,10.70
2018-11-11T03:40:07.094Z,10.70
2018-11-11T03:42:40.990Z,10.70
2018-11-11T03:45:16.203Z,10.70
2018-11-11T03:47:51.205Z,10.60
2018-11-11T03:50:24.998Z,10.60
2018-11-11T03:52:58.811Z,10.60
2018-11-11T03:55:32.607Z,10.60
2018-11-11T03:58:06.396Z,10.60
2018-11-11T04:00:42.345Z,10.60
2018-11-11T04:03:16.115Z,10.60
2018-11-11T04:05:52.975Z,10.50
2018-11-11T04:08:26.786Z,10.50
2018-11-11T04:11:00.809Z,10.50
2018-11-11T04:13:34.778Z,10.50
2018-11-11T04:16:10.658Z,10.50
2018-11-11T04:18:44.444Z,10.50
2018-11-11T04:21:19.358Z,10.50
2018-11-11T04:23:53.142Z,10.50
2018-11-11T04:26:27.001Z,10.50
2018-11-11T04:29:00.811Z,10.40
2018-11-11T04:31:34.576Z,10.40
2018-11-11T04:34:08.390Z,10.40
2018-11-11T04:36:43.122Z,10.40
2018-11-11T04:39:17.003Z,10.40
2018-11-11T04:41:55.269Z,10.30
2018-11-11T04:44:29.065Z,10.30
2018-11-11T04:47:02.875Z,10.30
2018-11-11T04:49:36.667Z,10.30
2018-11-11T04:52:12.441Z,10.30
2018-11-11T04:54:46.209Z,10.30
2018-11-11T04:57:24.150Z,10.30
2018-11-11T04:59:57.919Z,10.30
2018-11-11T05:05:53.151Z,10.30
2018-11-11T05:08:26.975Z,10.30
2018-11-11T05:11:00.853Z,10.20
2018-11-11T05:13:34.606Z,10.30
2018-11-11T05:16:19.685Z,10.30
2018-11-11T05:18:53.455Z,10.30
2018-11-11T05:21:29.349Z,10.30
2018-11-11T05:24:03.426Z,10.30
2018-11-11T05:26:39.218Z,10.40
2018-11-11T05:29:12.978Z,10.40
2018-11-11T05:31:52.817Z,10.40
2018-11-11T05:34:26.583Z,10.40
2018-11-11T05:37:01.405Z,10.40
2018-11-11T05:39:35.210Z,10.40
2018-11-11T05:42:13.667Z,10.30
2018-11-11T05:44:47.462Z,10.30
2018-11-11T05:47:22.396Z,10.30
2018-11-11T05:49:56.164Z,10.30
2018-11-11T05:52:30.975Z,10.30
2018-11-11T05:55:05.776Z,10.30
2018-11-11T05:57:41.731Z,10.30
2018-11-11T06:00:16.863Z,10.20
2018-11-11T06:02:51.728Z,10.20
2018-11-11T06:05:25.532Z,10.20
2018-11-11T06:08:02.558Z,10.20
2018-11-11T06:10:36.400Z,10.30
2018-11-11T06:13:11.339Z,10.30
2018-11-11T06:15:45.201Z,10.30
2018-11-11T06:18:21.025Z,10.20
2018-11-11T06:20:54.748Z,10.20
2018-11-11T06:23:46.514Z,10.10
2018-11-11T06:26:20.256Z,10.10
2018-11-11T06:29:00.706Z,10.10
2018-11-11T06:31:34.441Z,10.10
2018-11-11T06:34:08.387Z,10.10
2018-11-11T06:36:42.284Z,10.10
2018-11-11T06:39:22.108Z,10.10
2018-11-11T06:41:55.848Z,10.10
2018-11-11T06:44:29.721Z,10.10
2018-11-11T06:47:03.876Z,10.20
2018-11-11T06:49:38.819Z,10.20
2018-11-11T06:52:12.607Z,10.20
2018-11-11T06:54:47.538Z,10.20
2018-11-11T06:57:21.340Z,10.30
2018-11-11T07:00:03.339Z,10.30
2018-11-11T07:02:40.943Z,10.30
2018-11-11T07:05:16.731Z,10.30
2018-11-11T07:07:50.495Z,10.40
2018-11-11T07:10:24.336Z,10.40
2018-11-11T07:12:58.116Z,10.40
2018-11-11T07:15:37.429Z,10.40
2018-11-11T07:18:11.209Z,10.40
2018-11-11T07:20:46.034Z,10.40
2018-11-11T07:23:19.780Z,10.40
2018-11-11T07:25:54.690Z,10.40
2018-11-11T07:28:28.644Z,10.40
2018-11-11T07:31:04.829Z,10.40
2018-11-11T07:33:38.889Z,10.40
2018-11-11T07:36:17.753Z,10.40
2018-11-11T07:38:51.488Z,10.40
2018-11-11T07:41:26.356Z,10.50
2018-11-11T07:44:01.485Z,10.50
2018-11-11T07:46:40.940Z,10.50
2018-11-11T07:49:14.988Z,10.60
2018-11-11T07:51:49.855Z,10.60
2018-11-11T07:54:23.753Z,10.70
2018-11-11T07:56:59.603Z,10.70
2018-11-11T07:59:33.347Z,10.70
2018-11-11T08:02:08.631Z,10.70
2018-11-11T08:04:42.597Z,10.60
2018-11-11T08:07:18.420Z,10.60
2018-11-11T08:09:52.189Z,10.60
2018-11-11T08:12:28.088Z,10.60
2018-11-11T08:15:01.842Z,10.60
2018-11-11T08:17:46.595Z,10.70
2018-11-11T08:20:20.402Z,10.70
2018-11-11T08:22:56.311Z,10.70
2018-11-11T08:25:30.152Z,10.70
2018-11-11T08:28:09.826Z,10.70
2018-11-11T08:30:43.749Z,10.70
2018-11-11T08:33:21.332Z,10.90
2018-11-11T08:35:55.108Z,11.30
2018-11-11T08:38:32.290Z,11.60
2018-11-11T08:41:06.251Z,11.60
2018-11-11T08:43:41.075Z,11.70
2018-11-11T08:46:14.892Z,12.00
2018-11-11T08:48:52.618Z,12.00
2018-11-11T08:51:26.506Z,12.00
2018-11-11T08:54:03.875Z,11.80
2018-11-11T08:56:37.715Z,11.60
2018-11-11T08:59:14.689Z,11.60
2018-11-11T09:01:48.474Z,11.50
2018-11-11T09:04:23.406Z,11.70
2018-11-11T09:06:57.219Z,11.80
2018-11-11T09:09:36.642Z,11.90
2018-11-11T09:12:10.395Z,11.90
2018-11-11T09:14:46.312Z,12.10
2018-11-11T09:17:20.161Z,12.20
2018-11-11T09:19:55.161Z,12.30
2018-11-11T09:22:28.918Z,12.30
2018-11-11T09:25:08.250Z,12.00
2018-11-11T09:27:42.416Z,12.00
2018-11-11T09:30:17.368Z,12.00
2018-11-11T09:32:51.566Z,12.20
2018-11-11T09:38:27.916Z,12.70
2018-11-11T09:41:01.738Z,12.90
2018-11-11T09:43:39.650Z,12.90
2018-11-11T09:46:14.110Z,13.10
2018-11-11T09:48:51.940Z,13.20
2018-11-11T09:51:26.334Z,13.30
2018-11-11T09:54:00.816Z,13.20
2018-11-11T09:56:35.445Z,13.40
2018-11-11T09:59:11.894Z,13.50
2018-11-11T10:01:46.309Z,13.30
2018-11-11T10:04:25.785Z,13.30
2018-11-11T10:09:09.247Z,13.30
2018-11-11T10:11:47.382Z,13.40
2018-11-11T10:14:27.332Z,13.90
2018-11-11T10:17:41.154Z,14.00
2018-11-11T10:20:18.723Z,14.30
2018-11-11T10:23:15.150Z,14.40
2018-11-11T10:25:57.201Z,14.60
2018-11-11T10:28:43.733Z,14.80
2018-11-11T10:48:42.222Z,15.00
2018-11-11T10:51:16.805Z,15.20
2018-11-11T10:56:26.524Z,16.80
2018-11-11T10:59:00.914Z,16.40
2018-11-11T11:01:40.636Z,15.50
2018-11-11T11:04:15.076Z,15.90
2018-11-11T11:07:06.468Z,15.30
2018-11-11T11:09:40.820Z,14.80
2018-11-11T11:12:22.431Z,14.40
2018-11-11T11:14:56.877Z,14.20
2018-11-11T11:17:32.308Z,14.00
2018-11-11T11:20:07.273Z,13.90
2018-11-11T11:22:43.741Z,13.90
2018-11-11T11:25:18.112Z,13.80
2018-11-11T11:28:03.034Z,13.80
2018-11-11T11:30:37.428Z,13.80
2018-11-11T11:33:12.823Z,13.70
2018-11-11T11:35:47.239Z,13.80
2018-11-11T11:38:23.949Z,13.80
2018-11-11T11:40:58.512Z,13.80
2018-11-11T11:43:32.974Z,13.80
2018-11-11T11:46:07.396Z,13.70
2018-11-11T11:48:42.839Z,13.60
2018-11-11T11:51:17.213Z,13.70
2018-11-11T11:53:51.645Z,13.60
2018-11-11T11:56:25.999Z,13.60
2018-11-11T11:59:03.859Z,13.60
2018-11-11T12:01:38.228Z,13.60
2018-11-11T12:04:13.669Z,13.60
2018-11-11T12:06:48.084Z,13.60
2018-11-11T12:09:27.602Z,13.70
2018-11-11T12:12:02.000Z,13.50
2018-11-11T12:14:50.572Z,13.60
2018-11-11T12:17:25.012Z,13.50
2018-11-11T12:19:59.453Z,13.50
2018-11-11T12:22:33.838Z,13.40
2018-11-11T12:25:09.590Z,13.40
2018-11-11T12:27:43.976Z,13.40
2018-11-11T12:30:18.465Z,13.50
2018-11-11T12:32:53.037Z,13.40
2018-11-11T12:35:27.506Z,13.40
2018-11-11T12:38:02.341Z,13.30
2018-11-11T12:40:37.775Z,13.30
2018-11-11T12:43:12.177Z,13.30
2018-11-11T12:45:50.079Z,13.20
2018-11-11T12:48:24.430Z,13.20
2018-11-11T12:50:59.844Z,13.30
2018-11-11T12:53:34.217Z,13.30
2018-11-11T12:56:10.481Z,13.20
2018-11-11T12:58:44.898Z,13.20
2018-11-11T13:01:20.474Z,13.20
2018-11-11T13:03:54.859Z,13.20
2018-11-11T13:06:30.246Z,13.20
2018-11-11T13:09:06.969Z,13.20
2018-11-11T13:11:41.619Z,13.20
2018-11-11T13:14:15.995Z,13.20
2018-11-11T13:16:51.474Z,13.20
2018-11-11T13:19:25.942Z,13.20
2018-11-11T13:22:00.594Z,13.10
2018-11-11T13:24:35.039Z,13.10
2018-11-11T13:27:09.633Z,13.10
2018-11-11T13:29:43.976Z,13.00
2018-11-11T13:32:20.355Z,13.00
2018-11-11T13:34:54.694Z,12.90
2018-11-11T13:37:29.219Z,12.90
2018-11-11T13:40:03.719Z,12.80
2018-11-11T13:42:37.596Z,12.80
2018-11-11T13:45:15.073Z,12.80
2018-11-11T13:47:50.413Z,12.80
2018-11-11T13:50:25.247Z,12.90
2018-11-11T13:52:59.704Z,13.00
2018-11-11T13:55:33.494Z,13.10
2018-11-11T13:58:08.308Z,13.20
2018-11-11T14:00:42.105Z,13.10
2018-11-11T14:03:16.922Z,13.10
2018-11-11T14:05:51.322Z,13.10
2018-11-11T14:08:25.319Z,13.20
2018-11-11T14:10:59.277Z,13.30
2018-11-11T14:13:33.222Z,13.30
2018-11-11T14:16:06.999Z,13.40
2018-11-11T14:18:43.548Z,13.40
2018-11-11T14:21:17.942Z,13.40
2018-11-11T14:23:52.288Z,13.30
2018-11-11T14:26:26.919Z,13.20
2018-11-11T14:29:01.331Z,13.10
2018-11-11T14:31:35.140Z,13.00
2018-11-11T14:34:09.689Z,12.80
2018-11-11T14:36:43.454Z,12.80
2018-11-11T14:39:18.353Z,12.80
2018-11-11T14:41:52.148Z,12.70
2018-11-11T14:44:26.002Z,12.60
2018-11-11T14:47:00.289Z,12.50
2018-11-11T14:49:34.694Z,12.40
2018-11-11T14:52:08.560Z,12.30
2018-11-11T14:54:42.451Z,12.20
2018-11-11T14:57:16.219Z,12.10
2018-11-11T14:59:50.585Z,12.10
2018-11-11T15:02:24.395Z,12.00
2018-11-11T15:04:59.233Z,12.00
2018-11-11T15:07:33.005Z,11.90
2018-11-11T15:10:09.831Z,11.80
2018-11-11T15:12:43.659Z,11.70
2018-11-11T15:15:18.807Z,11.60
2018-11-11T15:17:53.249Z,11.60
2018-11-11T15:20:29.285Z,11.50
2018-11-11T15:23:03.121Z,11.40
2018-11-11T15:25:41.558Z,11.30
2018-11-11T15:28:15.317Z,11.20
2018-11-11T15:30:50.490Z,11.10
2018-11-11T15:33:24.183Z,11.10
2018-11-11T15:36:02.310Z,11.00
2018-11-11T15:38:36.021Z,11.00
2018-11-11T15:41:12.876Z,11.00
2018-11-11T15:43:46.806Z,10.90
2018-11-11T15:46:21.119Z,11.00
2018-11-11T15:48:54.864Z,10.90
2018-11-11T15:51:28.769Z,10.90
2018-11-11T15:54:02.518Z,10.90
2018-11-11T15:56:36.453Z,10.90
2018-11-11T15:59:10.243Z,10.90
2018-11-11T16:01:45.798Z,10.90
2018-11-11T16:04:19.529Z,11.00
2018-11-11T16:06:55.541Z,11.00
2018-11-11T16:09:29.734Z,11.10
2018-11-11T16:12:03.506Z,11.10
2018-11-11T16:14:37.362Z,11.00
2018-11-11T16:17:13.136Z,11.00
2018-11-11T16:19:47.249Z,10.90
2018-11-11T16:22:21.117Z,10.80
2018-11-11T16:24:54.916Z,10.80
2018-11-11T16:27:28.785Z,10.70
2018-11-11T16:30:03.740Z,10.60
2018-11-11T16:32:38.534Z,10.60
2018-11-11T16:35:13.541Z,10.60
2018-11-11T16:37:47.861Z,10.60
2018-11-11T16:40:22.956Z,10.60
2018-11-11T16:42:57.269Z,10.60
2018-11-11T16:45:32.164Z,10.60
2018-11-11T16:48:07.148Z,10.50
2018-11-11T16:50:41.099Z,10.60
2018-11-11T16:53:16.132Z,10.60
2018-11-11T16:55:50.012Z,10.60
2018-11-11T16:58:24.268Z,10.50
2018-11-11T17:00:58.127Z,10.50
2018-11-11T17:03:32.037Z,10.50
2018-11-11T17:06:06.509Z,10.50
2018-11-11T17:08:40.753Z,10.40
2018-11-11T17:11:14.526Z,10.40
2018-11-11T17:13:48.453Z,10.40
2018-11-11T17:16:22.287Z,10.50
2018-11-11T17:18:56.153Z,10.50
2018-11-11T17:21:30.072Z,10.50
2018-11-11T17:24:04.476Z,10.50
2018-11-11T17:26:38.261Z,10.60
2018-11-11T17:29:16.242Z,10.60
2018-11-11T17:31:50.040Z,10.50
2018-11-11T17:34:26.017Z,10.50
2018-11-11T17:36:59.805Z,10.40
2018-11-11T17:39:36.813Z,10.40
2018-11-11T17:42:10.929Z,10.30
2018-11-11T17:44:46.793Z,10.20
2018-11-11T17:47:20.632Z,10.20
2018-11-11T17:49:59.125Z,10.10
2018-11-11T17:52:32.955Z,10.10
2018-11-11T17:55:09.438Z,10.10
2018-11-11T17:57:43.784Z,10.10
2018-11-11T18:00:22.153Z,10.10
2018-11-11T18:02:56.579Z,10.10
2018-11-11T18:05:32.134Z,10.10
2018-11-11T18:08:06.252Z,10.10
2018-11-11T18:10:42.359Z,10.20
2018-11-11T18:13:16.272Z,10.10
2018-11-11T18:15:50.186Z,10.20
2018-11-11T18:18:24.008Z,10.20
2018-11-11T18:20:58.800Z,10.20
2018-11-11T18:23:32.608Z,10.20
2018-11-11T18:26:07.501Z,10.20
2018-11-11T18:28:41.361Z,10.20
2018-11-11T18:31:16.541Z,10.20
2018-11-11T18:33:50.414Z,10.20
2018-11-11T18:36:26.275Z,10.20
2018-11-11T18:39:00.094Z,10.20
2018-11-11T18:41:52.413Z,10.20
2018-11-11T18:44:26.380Z,10.20
2018-11-11T18:47:02.708Z,10.30
2018-11-11T18:49:36.544Z,10.30
2018-11-11T18:52:13.573Z,10.40
2018-11-11T18:54:47.464Z,10.40
2018-11-11T18:57:22.433Z,10.40
2018-11-11T18:59:56.316Z,10.40
2018-11-11T19:02:33.289Z,10.40
2018-11-11T19:05:08.326Z,10.40
2018-11-11T19:07:46.724Z,10.40
2018-11-11T19:10:21.879Z,10.50
2018-11-11T19:13:00.333Z,10.40
2018-11-11T19:15:34.233Z,10.40
2018-11-11T19:18:08.135Z,10.50
2018-11-11T19:20:41.936Z,10.50
2018-11-11T19:23:15.856Z,10.50
2018-11-11T19:25:49.689Z,10.50
2018-11-11T19:28:28.303Z,10.50
2018-11-11T19:31:02.130Z,10.60
2018-11-11T19:33:38.024Z,10.60
2018-11-11T19:36:12.028Z,10.60
2018-11-11T19:38:50.178Z,10.70
2018-11-11T19:41:24.060Z,10.70
2018-11-11T19:43:59.990Z,10.70
2018-11-11T19:46:33.824Z,9.50
2018-11-11T19:49:09.073Z,10.80
2018-11-11T19:51:43.034Z,10.70
2018-11-11T19:54:17.272Z,10.80
2018-11-11T19:56:51.164Z,10.80
2018-11-11T19:59:25.503Z,11.00
2018-11-11T20:01:59.338Z,10.80
2018-11-11T20:04:35.174Z,10.80
2018-11-11T20:07:08.991Z,10.90
2018-11-11T20:09:48.875Z,10.90
2018-11-11T20:12:22.727Z,10.90
2018-11-11T20:14:57.552Z,10.90
2018-11-11T20:17:31.466Z,11.00
2018-11-11T20:20:07.215Z,10.90
2018-11-11T20:22:41.291Z,11.00
2018-11-11T20:25:21.124Z,10.90
2018-11-11T20:27:54.909Z,10.90
2018-11-11T20:30:32.245Z,10.90
2018-11-11T20:33:06.531Z,10.90
2018-11-11T20:35:41.412Z,10.80
2018-11-11T20:38:15.231Z,10.80
2018-11-11T20:40:49.190Z,10.80
2018-11-11T20:43:23.370Z,10.90
2018-11-11T20:46:02.266Z,10.80
2018-11-11T20:48:36.053Z,10.80
2018-11-11T20:51:10.929Z,10.90
2018-11-11T20:53:44.730Z,10.90
2018-11-11T20:56:22.847Z,10.90
2018-11-11T20:58:56.873Z,10.90
2018-11-11T21:01:32.687Z,10.90
2018-11-11T21:04:06.610Z,10.90
2018-11-11T21:06:42.495Z,11.00
2018-11-11T21:09:16.408Z,10.90
2018-11-11T21:11:54.654Z,10.90
2018-11-11T21:14:28.491Z,10.90
2018-11-11T21:17:03.408Z,10.90
2018-11-11T21:19:37.414Z,10.90
2018-11-11T21:22:13.295Z,10.90
2018-11-11T21:24:47.126Z,10.90
2018-11-11T21:27:20.962Z,10.80
2018-11-11T21:29:54.743Z,10.80
2018-11-11T21:32:29.533Z,10.80
2018-11-11T21:35:03.532Z,10.80
2018-11-11T21:37:37.611Z,10.80
2018-11-11T21:40:14.277Z,10.80
2018-11-11T21:42:49.970Z,10.70
2018-11-11T21:45:24.665Z,10.70
2018-11-11T21:47:59.143Z,10.70
2018-11-11T21:50:33.097Z,10.60
2018-11-11T21:53:16.242Z,10.60
2018-11-11T21:55:50.328Z,10.60
2018-11-11T21:58:24.853Z,10.60
2018-11-11T22:00:58.649Z,10.60
2018-11-11T22:03:32.473Z,10.60
2018-11-11T22:06:06.370Z,10.60
2018-11-11T22:08:40.207Z,10.70
2018-11-11T22:11:14.177Z,10.70
2018-11-11T22:13:50.004Z,10.70
2018-11-11T22:16:23.861Z,10.70
2018-11-11T22:18:57.700Z,10.70
2018-11-11T22:21:31.488Z,10.70
2018-11-11T22:24:05.353Z,10.80
2018-11-11T22:26:39.101Z,10.90
2018-11-11T22:29:12.911Z,10.90
2018-11-11T22:31:46.680Z,11.00
2018-11-11T22:34:20.578Z,11.00
2018-11-11T22:36:54.353Z,11.00
2018-11-11T22:39:28.153Z,11.00
2018-11-11T22:42:01.928Z,11.00
2018-11-11T22:44:36.779Z,11.00
2018-11-11T22:47:10.562Z,11.00
2018-11-11T22:49:46.334Z,11.00
2018-11-11T22:52:20.157Z,11.10
2018-11-11T22:54:55.226Z,11.10
2018-11-11T22:57:29.068Z,11.10
2018-11-11T23:00:02.961Z,11.10
2018-11-11T23:02:36.757Z,11.10
2018-11-11T23:05:12.673Z,11.20
2018-11-11T23:07:46.669Z,11.20
2018-11-11T23:10:21.722Z,11.10
2018-11-11T23:12:55.541Z,11.10
2018-11-11T23:15:31.416Z,11.10
2018-11-11T23:18:05.232Z,11.10
2018-11-11T23:20:44.384Z,11.00
2018-11-11T23:23:18.193Z,11.00
2018-11-11T23:25:52.020Z,11.00
2018-11-11T23:28:25.880Z,10.90
2018-11-11T23:31:00.013Z,10.90
2018-11-11T23:33:33.844Z,10.90
2018-11-11T23:36:08.722Z,10.90
2018-11-11T23:38:42.540Z,10.90
2018-11-11T23:41:17.555Z,10.90
2018-11-11T23:43:51.370Z,10.90
2018-11-11T23:46:26.215Z,10.90
2018-11-11T23:49:00.036Z,10.90
2018-11-11T23:51:33.928Z,10.90
2018-11-11T23:54:07.748Z,10.90
2018-11-11T23:56:45.272Z,10.80
2018-11-11T23:59:19.090Z,10.80
